Aprilia, Italy

7:08 AM CEST on April 27, 2017 (GMT +0200)
Aprilia Impianto Biogas | | Change Station

Elev 2 ft 41.57 °N, 12.64 °E | Updated 38 seconds ago

Rain
Rain
61.7 °F
Feels Like 61.7 °F
N
11.4
Wind Variable Wind from South
Gusts 13.0 mph

Today
High -- | Low -- °F
--% Chance of Precip.
Yesterday
High -- | Low -- °F
Precip. -- in
Pressure 29.92 in
Visibility 6.2 miles
Clouds Few 2500 ft
Scattered Clouds 4000 ft
Dew Point 56 °F
Humidity 81%
Rainfall 0.00 in
Snow Depth Not available.
6:11 AM 8:03 PM
New Moon, 1% visible
METAR LIRL 270455Z 13013KT 9999 FEW025 SCT040 17/13 Q1013
Pressure 29.92 in
Visibility 6.2 miles
Clouds Few 2500 ft
Scattered Clouds 4000 ft
Dew Point 56 °F
Humidity 81%
Rainfall 0.00 in
Snow Depth Not available.
6:11 AM 8:03 PM
New Moon, 1% visible
METAR LIRL 270455Z 13013KT 9999 FEW025 SCT040 17/13 Q1013

Get Severe Weather Alerts

Thanks for signing up!

Be on the lookout for a verification email in your inbox.

You'll start receiving the daily forecast at 8 AM.

×

10-Day Weather Forecast

×

Almanac

Astronomy

Apr. 27, 2017 Rise Set
Actual Time
Civil Twilight
Nautical Twilight
Astronomical Twilight
Moon
Length of Visible Light
Length of Day
Tomorrow will be .
, % of the Moon is Illuminated

Today's Extremes

Country Highs Country Lows

Community

WunderPhotos

WunderBlog® & News

Nearby

Air Quality

  Air Quality AQ Index Pollutant
Not available.

Snow Depth

Station Depth Elevation

Earthquake Activity

City Distance Mag. Time & Date
Minimum magnitude displayed is 2.5.

Coastal Water Temperatures

Place Temperature

Stations

Nearby Weather Stations

Station Location Temp. Windchill Dew Point Humidity Wind Precip. Elev Updated Type